Time;durP1;ratioP1;P1;durP2;ratioP2;P2;SDS_P1;SDS_P2;PMS_P1;PMS_P2;Temp;Humidity;BMP_temperature;BMP_pressure;BME280_temperature;BME280_humidity;BME280_pressure;Samples;Min_cycle;Max_cycle;Signal;HPM_P1;HPM_P2
2021/04/03 00:00:27;;;;;;;;;;;;;;;19.17;65.27;100544.34;5092497;28;1166;-66
2021/04/03 00:02:54;;;;;;;;;;;;;;;19.16;65.26;100536.50;5110682;28;1334;-66
2021/04/03 00:05:21;;;;;;;;;;;;;;;19.16;65.28;100534.72;5092046;28;1315;-66
2021/04/03 00:07:48;;;;;;;;;;;;;;;19.15;65.49;100533.03;5110296;28;1176;-66
2021/04/03 00:10:16;;;;;;;;;;;;;;;19.16;65.30;100540.00;5110340;28;1909;-66
2021/04/03 00:12:51;;;;;;;;;;;;;;;19.16;65.53;100536.50;5110151;28;1255;-66
2021/04/03 00:15:17;;;;;;;;;;;;;;;19.14;65.51;100541.91;5110608;28;906;-67
2021/04/03 00:17:44;;;;;;;;;;;;;;;19.15;65.32;100542.75;5110320;28;1228;-66
2021/04/03 00:20:11;;;;;;;;;;;;;;;19.14;65.21;100533.97;5110224;28;901;-67
2021/04/03 00:22:38;;;;;;;;;;;;;;;19.16;65.24;100539.16;5091597;28;1406;-67
2021/04/03 00:25:05;;;;;;;;;;;;;;;19.14;65.19;100531.34;5110504;28;1108;-67
2021/04/03 00:27:32;;;;;;;;;;;;;;;19.14;65.20;100528.69;5110398;28;1228;-67
2021/04/03 00:29:58;;;;;;;;;;;;;;;19.14;65.18;100527.84;5109997;28;921;-67
2021/04/03 00:32:24;;;;;;;;;;;;;;;19.13;65.22;100521.72;5109862;28;1909;-67
2021/04/03 00:34:50;;;;;;;;;;;;;;;19.12;65.06;100520.00;5090897;28;1243;-67
2021/04/03 00:37:17;;;;;;;;;;;;;;;19.12;65.22;100511.25;5109553;28;1294;-67
2021/04/03 00:39:43;;;;;;;;;;;;;;;19.12;64.95;100514.72;5091577;28;1098;-67
2021/04/03 00:42:12;;;;;;;;;;;;;;;19.12;64.91;100516.53;5109613;28;1209;-67
2021/04/03 00:44:39;;;;;;;;;;;;;;;19.12;65.12;100508.63;5103139;28;1529;-66
2021/04/03 00:47:05;;;;;;;;;;;;;;;19.11;64.69;100505.13;5092778;28;1279;-66
2021/04/03 00:49:31;;;;;;;;;;;;;;;19.12;64.87;100505.97;5071199;28;1059;-67
2021/04/03 00:52:00;;;;;;;;;;;;;;;19.10;64.54;100504.28;5088757;28;1985;-67
2021/04/03 00:54:27;;;;;;;;;;;;;;;19.10;64.85;100506.06;5070863;28;1067;-66
2021/04/03 00:56:53;;;;;;;;;;;;;;;19.10;64.79;100508.69;5089161;28;1237;-66
2021/04/03 00:59:19;;;;;;;;;;;;;;;19.09;65.02;100505.22;5088547;28;1020;-67
2021/04/03 01:01:45;;;;;;;;;;;;;;;19.10;65.01;100509.56;5088372;28;1232;-66
2021/04/03 01:04:11;;;;;;;;;;;;;;;19.09;65.13;100513.13;5088960;28;1284;-66
2021/04/03 01:06:38;;;;;;;;;;;;;;;19.09;64.96;100509.63;5070801;28;1220;-67
2021/04/03 01:09:04;;;;;;;;;;;;;;;19.09;65.07;100513.13;5089134;28;1055;-67
2021/04/03 01:11:32;;;;;;;;;;;;;;;19.09;65.23;100509.63;5088661;28;1981;-67
2021/04/03 01:13:58;;;;;;;;;;;;;;;19.08;64.83;100510.59;5070550;28;1166;-67
2021/04/03 01:16:33;;;;;;;;;;;;;;;19.08;65.01;100522.00;5070473;28;1305;-66
2021/04/03 01:19:06;;;;;;;;;;;;;;;19.09;64.90;100523.69;5088813;28;952;-66
2021/04/03 01:21:42;;;;;;;;;;;;;;;19.08;65.01;100522.00;5070297;28;1251;-67
2021/04/03 01:24:18;;;;;;;;;;;;;;;19.08;64.78;100518.53;5088621;28;1124;-66
2021/04/03 01:27:00;;;;;;;;;;;;;;;19.07;64.90;100522.94;5070705;28;1225;-65
2021/04/03 01:29:29;;;;;;;;;;;;;;;19.08;65.13;100515.88;5088867;28;1031;-65
2021/04/03 01:31:56;;;;;;;;;;;;;;;19.07;65.11;100520.31;5070305;28;1917;-65
2021/04/03 01:34:25;;;;;;;;;;;;;;;19.07;65.09;100520.31;5070488;28;1330;-66
2021/04/03 01:37:02;;;;;;;;;;;;;;;19.07;65.15;100519.44;5088493;28;1224;-66
2021/04/03 01:39:30;;;;;;;;;;;;;;;19.06;65.36;100521.25;5089000;28;1069;-66
2021/04/03 01:42:07;;;;;;;;;;;;;;;19.07;65.33;100520.31;5088811;28;1304;-66
2021/04/03 01:44:35;;;;;;;;;;;;;;;19.05;65.25;100514.28;5089172;28;975;-65
2021/04/03 01:47:03;;;;;;;;;;;;;;;19.06;65.40;100513.31;5092586;28;1216;-65
2021/04/03 01:49:30;;;;;;;;;;;;;;;19.06;65.27;100512.47;5092630;28;1203;-66
2021/04/03 01:51:58;;;;;;;;;;;;;;;19.06;65.19;100508.03;5091609;28;1970;-65
2021/04/03 01:54:25;;;;;;;;;;;;;;;19.05;65.33;100503.72;5092497;28;1053;-66
2021/04/03 01:56:52;;;;;;;;;;;;;;;19.05;65.28;100490.53;5092222;28;1334;-66
2021/04/03 01:59:18;;;;;;;;;;;;;;;19.04;65.51;100486.19;5092567;28;1163;-65
2021/04/03 02:01:46;;;;;;;;;;;;;;;19.04;65.49;100496.75;5092469;28;1295;-66
2021/04/03 02:04:13;;;;;;;;;;;;;;;19.04;65.22;100494.09;5074072;28;1074;-66
2021/04/03 02:06:43;;;;;;;;;;;;;;;19.04;65.39;100491.47;5057093;28;1198;-66
2021/04/03 02:09:11;;;;;;;;;;;;;;;19.04;65.14;100491.47;5092504;28;1189;-66
2021/04/03 02:11:39;;;;;;;;;;;;;;;19.04;65.24;100494.09;5092004;28;1891;-66
2021/04/03 02:14:05;;;;;;;;;;;;;;;19.04;65.38;100493.25;5092091;28;1044;-65
2021/04/03 02:16:33;;;;;;;;;;;;;;;19.03;65.37;100487.09;5092198;28;1220;-66
2021/04/03 02:19:01;;;;;;;;;;;;;;;19.03;65.34;100483.63;5073666;28;1147;-66
2021/04/03 02:21:28;;;;;;;;;;;;;;;19.02;65.15;100477.50;5091667;28;1226;-66
2021/04/03 02:23:55;;;;;;;;;;;;;;;19.02;65.31;100469.59;5091555;28;902;-66
2021/04/03 02:26:21;;;;;;;;;;;;;;;19.01;65.44;100470.53;5092069;28;1183;-66
2021/04/03 02:28:49;;;;;;;;;;;;;;;19.02;65.27;100474.03;5092033;28;1059;-66
2021/04/03 02:31:15;;;;;;;;;;;;;;;19.00;65.36;100474.09;5091725;28;1971;-66
2021/04/03 02:33:41;;;;;;;;;;;;;;;19.01;65.38;100478.44;5092044;28;1042;-66
2021/04/03 02:36:08;;;;;;;;;;;;;;;19.00;65.44;100471.47;5073367;28;1431;-66
2021/04/03 02:38:34;;;;;;;;;;;;;;;19.01;65.52;100467.88;5091899;28;956;-66
2021/04/03 02:41:00;;;;;;;;;;;;;;;19.00;65.43;100471.47;5091810;28;972;-66
2021/04/03 02:43:40;;;;;;;;;;;;;;;19.00;65.49;100475.88;5091671;28;1208;-66
2021/04/03 02:46:13;;;;;;;;;;;;;;;19.00;65.47;100470.59;5073704;28;1327;-66
2021/04/03 02:48:43;;;;;;;;;;;;;;;19.00;65.53;100470.59;5091544;28;1103;-66
2021/04/03 02:51:11;;;;;;;;;;;;;;;18.99;65.47;100464.50;5090171;28;1978;-67
2021/04/03 02:53:38;;;;;;;;;;;;;;;19.00;65.44;100473.25;5091363;28;1116;-67
2021/04/03 02:56:05;;;;;;;;;;;;;;;18.99;65.56;100475.06;5090251;28;1322;-66
2021/04/03 02:58:34;;;;;;;;;;;;;;;18.98;65.51;100470.72;5072743;28;1306;-66
2021/04/03 03:01:01;;;;;;;;;;;;;;;18.98;65.56;100467.22;5091175;28;937;-66
2021/04/03 03:03:29;;;;;;;;;;;;;;;18.98;65.56;100465.44;5091334;28;1192;-67
2021/04/03 03:05:57;;;;;;;;;;;;;;;18.98;65.55;100468.09;5072831;28;822;-66
2021/04/03 03:08:24;;;;;;;;;;;;;;;18.98;65.65;100469.88;5090927;28;1244;-66
2021/04/03 03:10:51;;;;;;;;;;;;;;;18.97;65.56;100455.81;5090838;28;1910;-66
2021/04/03 03:13:19;;;;;;;;;;;;;;;18.98;65.57;100470.72;5090562;28;1221;-66
2021/04/03 03:15:45;;;;;;;;;;;;;;;18.97;65.61;100457.59;5090755;28;1486;-66
2021/04/03 03:18:12;;;;;;;;;;;;;;;18.96;65.55;100464.69;5090677;28;1223;-66
2021/04/03 03:20:39;;;;;;;;;;;;;;;18.97;65.66;100465.53;5072470;28;1199;-66
2021/04/03 03:23:05;;;;;;;;;;;;;;;18.96;65.78;100466.47;5090729;28;1321;-67
2021/04/03 03:25:32;;;;;;;;;;;;;;;18.95;65.65;100468.28;5072682;28;1278;-67
2021/04/03 03:27:58;;;;;;;;;;;;;;;18.94;65.80;100461.28;5090544;28;1217;-67
2021/04/03 03:30:25;;;;;;;;;;;;;;;18.95;65.65;100463.00;5090820;28;1155;-67
2021/04/03 03:32:51;;;;;;;;;;;;;;;18.94;65.66;100456.00;5090284;28;1989;-67
2021/04/03 03:35:18;;;;;;;;;;;;;;;18.90;65.56;100449.25;5090732;28;1089;-66
2021/04/03 03:37:45;;;;;;;;;;;;;;;18.94;65.61;100449.88;5090413;28;1241;-67
2021/04/03 03:40:12;;;;;;;;;;;;;;;18.94;65.68;100455.16;5072482;28;1084;-67
2021/04/03 03:42:39;;;;;;;;;;;;;;;18.94;65.62;100450.72;5090611;28;1244;-67
2021/04/03 03:45:06;;;;;;;;;;;;;;;18.94;65.66;100453.38;5090824;28;1150;-66
2021/04/03 03:47:32;;;;;;;;;;;;;;;18.93;65.65;100458.75;5090199;28;1213;-67
2021/04/03 03:49:58;;;;;;;;;;;;;;;18.92;65.72;100457.91;5090439;28;1167;-67
2021/04/03 03:52:24;;;;;;;;;;;;;;;18.92;65.75;100463.19;5089818;28;1988;-67
2021/04/03 03:54:50;;;;;;;;;;;;;;;18.93;65.64;100461.41;5090304;28;1175;-67
2021/04/03 03:57:16;;;;;;;;;;;;;;;18.92;65.70;100451.78;5089987;28;1247;-67
2021/04/03 03:59:43;;;;;;;;;;;;;;;18.92;65.78;100457.91;5090240;28;1318;-66
2021/04/03 04:02:09;;;;;;;;;;;;;;;18.91;65.67;100455.34;5089967;28;1320;-67
2021/04/03 04:04:35;;;;;;;;;;;;;;;18.90;65.83;100459.81;5089699;28;1074;-67
2021/04/03 04:07:01;;;;;;;;;;;;;;;18.91;65.76;100469.38;5090231;28;1315;-67
2021/04/03 04:09:29;;;;;;;;;;;;;;;18.91;65.84;100456.19;5090289;28;1099;-67
2021/04/03 04:11:55;;;;;;;;;;;;;;;18.90;65.93;100454.53;5089878;28;1982;-67
2021/04/03 04:14:21;;;;;;;;;;;;;;;18.90;65.73;100445.75;5071883;28;1172;-67
2021/04/03 04:16:48;;;;;;;;;;;;;;;18.89;65.83;100447.53;5089982;28;1232;-67
2021/04/03 04:19:14;;;;;;;;;;;;;;;18.89;65.92;100441.41;5071795;28;985;-67
2021/04/03 04:21:40;;;;;;;;;;;;;;;18.89;66.14;100446.69;5089832;28;1246;-67
2021/04/03 04:24:06;;;;;;;;;;;;;;;18.90;65.86;100448.38;5090041;28;1049;-67
2021/04/03 04:26:32;;;;;;;;;;;;;;;18.88;65.94;100444.97;5089709;28;1307;-67
2021/04/03 04:28:58;;;;;;;;;;;;;;;18.88;65.87;100444.97;5071316;28;1251;-67
2021/04/03 04:31:25;;;;;;;;;;;;;;;18.87;65.89;100449.44;5089102;28;1909;-67
2021/04/03 04:33:51;;;;;;;;;;;;;;;18.88;65.87;100450.25;5089024;28;1213;-66
2021/04/03 04:36:18;;;;;;;;;;;;;;;18.88;65.84;100447.63;5071096;28;1232;-66
2021/04/03 04:38:44;;;;;;;;;;;;;;;18.87;65.85;100446.78;5089577;28;1047;-66
2021/04/03 04:41:10;;;;;;;;;;;;;;;18.89;65.87;100451.97;5089027;28;1312;-66
2021/04/03 04:43:36;;;;;;;;;;;;;;;18.87;65.85;100444.16;5088828;28;941;-67
2021/04/03 04:46:02;;;;;;;;;;;;;;;18.86;65.82;100439.81;5088942;28;1184;-67
2021/04/03 04:48:29;;;;;;;;;;;;;;;18.87;65.89;100449.44;5070412;28;1202;-67
2021/04/03 04:51:15;;;;;;;;;;;;;;;18.86;65.92;100442.44;5086590;28;1910;-67
2021/04/03 04:54:01;;;;;;;;;;;;;;;18.86;65.90;100444.22;5071769;28;1053;-67
2021/04/03 04:56:27;;;;;;;;;;;;;;;18.86;66.03;100449.50;5069819;28;1268;-68
2021/04/03 04:58:53;;;;;;;;;;;;;;;18.86;65.99;100446.88;5088990;28;1062;-66
2021/04/03 05:01:20;;;;;;;;;;;;;;;18.83;65.99;100440.00;5088785;28;1319;-67
2021/04/03 05:03:46;;;;;;;;;;;;;;;18.85;66.15;100450.44;5089095;28;1150;-66
2021/04/03 05:06:12;;;;;;;;;;;;;;;18.85;65.97;100443.38;5088950;28;1342;-67
2021/04/03 05:08:39;;;;;;;;;;;;;;;18.84;65.98;100444.34;5077463;28;1628;-67
2021/04/03 05:11:05;;;;;;;;;;;;;;;18.84;66.02;100449.63;5074307;28;1910;-67
2021/04/03 05:13:31;;;;;;;;;;;;;;;18.77;66.19;100439.53;5086475;28;1270;-67
2021/04/03 05:15:58;;;;;;;;;;;;;;;18.83;66.08;100454.97;5070429;28;1452;-68
2021/04/03 05:18:24;;;;;;;;;;;;;;;18.83;66.14;100447.91;5087300;28;1354;-67
2021/04/03 05:20:50;;;;;;;;;;;;;;;18.85;65.99;100463.63;5114620;28;814;-68
2021/04/03 05:23:18;;;;;;;;;;;;;;;18.83;65.99;100458.47;5115842;28;1213;-67
2021/04/03 05:25:44;;;;;;;;;;;;;;;18.83;65.96;100450.56;5115764;28;1580;-67
2021/04/03 05:28:13;;;;;;;;;;;;;;;18.83;66.10;100465.53;5060605;28;1241;-67
2021/04/03 05:30:40;;;;;;;;;;;;;;;18.82;66.08;100462.03;5095445;28;1282;-67
2021/04/03 05:33:06;;;;;;;;;;;;;;;18.82;66.11;100466.47;5095138;28;1984;-67
2021/04/03 05:35:32;;;;;;;;;;;;;;;18.82;66.17;100471.75;5095425;28;1083;-67
2021/04/03 05:37:59;;;;;;;;;;;;;;;18.82;65.91;100471.75;5095369;28;1319;-67
2021/04/03 05:40:25;;;;;;;;;;;;;;;18.81;65.93;100470.94;5095133;28;1198;-67
2021/04/03 05:42:52;;;;;;;;;;;;;;;18.81;66.02;100476.19;5076580;28;1310;-67
2021/04/03 05:45:18;;;;;;;;;;;;;;;18.82;66.18;100474.38;5077099;28;938;-67
2021/04/03 05:47:45;;;;;;;;;;;;;;;18.82;66.03;100477.03;5095160;28;1318;-67
2021/04/03 05:50:12;;;;;;;;;;;;;;;18.80;65.98;100471.84;5095472;28;1080;-67
2021/04/03 05:52:40;;;;;;;;;;;;;;;18.81;66.05;100473.56;5077158;28;1995;-67
2021/04/03 05:55:07;;;;;;;;;;;;;;;18.80;66.07;100474.50;5095137;28;1154;-67
2021/04/03 05:57:34;;;;;;;;;;;;;;;18.80;66.06;100471.84;5094737;28;1252;-67
2021/04/03 06:00:01;;;;;;;;;;;;;;;18.80;66.08;100474.50;5076936;28;1491;-68
2021/04/03 06:02:34;;;;;;;;;;;;;;;18.80;66.14;100479.78;5095144;28;1232;-66
2021/04/03 06:05:00;;;;;;;;;;;;;;;18.80;66.03;100474.50;5076979;28;1188;-68
2021/04/03 06:07:27;;;;;;;;;;;;;;;18.80;65.94;100478.91;5076842;28;1244;-67
2021/04/03 06:09:54;;;;;;;;;;;;;;;18.78;66.17;100476.38;5095632;28;1047;-67
2021/04/03 06:12:36;;;;;;;;;;;;;;;18.79;66.07;100474.56;5095029;28;1945;-66
2021/04/03 06:15:03;;;;;;;;;;;;;;;18.78;66.06;100476.38;5095575;28;1099;-67
2021/04/03 06:17:29;;;;;;;;;;;;;;;18.80;65.96;100476.28;5095146;28;1243;-67
2021/04/03 06:19:55;;;;;;;;;;;;;;;18.79;65.95;100471.94;5095475;28;932;-67
2021/04/03 06:22:21;;;;;;;;;;;;;;;18.79;66.00;100482.50;5094921;28;1213;-67
2021/04/03 06:24:47;;;;;;;;;;;;;;;18.78;66.01;100476.38;5077259;28;1071;-67
2021/04/03 06:27:17;;;;;;;;;;;;;;;18.78;66.00;100478.16;5094805;28;1334;-67
2021/04/03 06:29:46;;;;;;;;;;;;;;;18.77;66.15;100477.31;5095198;28;975;-67
2021/04/03 06:32:23;;;;;;;;;;;;;;;18.77;66.10;100477.31;5092101;28;1934;-68
2021/04/03 06:34:50;;;;;;;;;;;;;;;18.77;66.08;100469.41;5091890;28;1329;-67
2021/04/03 06:37:26;;;;;;;;;;;;;;;18.77;66.15;100477.31;5091582;28;1318;-67
2021/04/03 06:39:52;;;;;;;;;;;;;;;18.76;66.20;100472.97;5073964;28;1162;-67
2021/04/03 06:42:36;;;;;;;;;;;;;;;18.77;66.25;100477.31;5091405;28;1243;-67
2021/04/03 06:45:18;;;;;;;;;;;;;;;18.78;66.08;100473.75;5073302;28;1446;-67
2021/04/03 06:47:46;;;;;;;;;;;;;;;18.78;66.12;100476.38;5091346;28;1232;-67
2021/04/03 06:50:13;;;;;;;;;;;;;;;18.77;66.26;100477.31;5091261;28;1339;-67
2021/04/03 06:52:40;;;;;;;;;;;;;;;18.77;66.26;100474.69;5091052;28;1981;-67
2021/04/03 06:55:07;;;;;;;;;;;;;;;18.78;66.29;100470.25;5091256;28;1158;-67
2021/04/03 06:57:35;;;;;;;;;;;;;;;18.76;66.38;100478.25;5071986;28;1300;-68
2021/04/03 07:00:03;;;;;;;;;;;;;;;18.76;66.35;100480.88;5073161;28;1046;-67
2021/04/03 07:02:31;;;;;;;;;;;;;;;18.87;67.13;100474.97;5090989;28;1220;-67
2021/04/03 07:05:00;;;;;;;;;;;;;;;18.86;66.98;100479.41;5091545;28;1029;-68
2021/04/03 07:07:29;;;;;;;;;;;;;;;18.85;66.81;100469.78;5090385;28;1283;-65
2021/04/03 07:09:56;;;;;;;;;;;;;;;18.82;66.16;100472.59;5072902;28;1533;-66
2021/04/03 07:12:23;;;;;;;;;;;;;;;18.86;66.10;100470.63;5091045;28;1985;-65
2021/04/03 07:14:50;;;;;;;;;;;;;;;18.86;65.91;100473.25;5091124;28;1044;-63
2021/04/03 07:17:16;;;;;;;;;;;;;;;18.86;65.77;100466.19;5090713;28;1228;-63
2021/04/03 07:19:45;;;;;;;;;;;;;;;18.88;65.78;100464.31;5072751;28;1211;-65
2021/04/03 07:22:12;;;;;;;;;;;;;;;18.89;65.85;100467.78;5090596;28;1208;-67
2021/04/03 07:24:39;;;;;;;;;;;;;;;18.91;65.82;100464.13;5091018;28;917;-64
2021/04/03 07:27:05;;;;;;;;;;;;;;;18.91;65.68;100461.47;5090601;28;1228;-65
2021/04/03 07:29:48;;;;;;;;;;;;;;;18.91;65.84;100464.13;5090801;28;1135;-67
2021/04/03 07:32:34;;;;;;;;;;;;;;;18.90;65.98;100449.25;5090711;28;1902;-63
2021/04/03 07:35:13;;;;;;;;;;;;;;;18.91;65.77;100456.19;5090844;28;1037;-65
2021/04/03 07:37:39;;;;;;;;;;;;;;;18.93;67.45;100454.34;5090687;28;1311;-66
2021/04/03 07:40:06;;;;;;;;;;;;;;;18.97;67.56;100450.53;5074691;28;1531;-65
2021/04/03 07:42:37;;;;;;;;;;;;;;;18.94;66.87;100441.94;5070207;28;1282;-68
2021/04/03 07:45:05;;;;;;;;;;;;;;;18.94;66.56;100456.00;5089555;28;1195;-66
2021/04/03 07:47:44;;;;;;;;;;;;;;;18.93;66.56;100449.06;5089674;28;1240;-64
2021/04/03 07:50:11;;;;;;;;;;;;;;;18.93;66.67;100458.75;5089676;28;1061;-63
2021/04/03 07:52:53;;;;;;;;;;;;;;;18.99;67.68;100461.00;5089346;28;1902;-64
2021/04/03 07:55:30;;;;;;;;;;;;;;;18.95;67.13;100463.00;5089136;28;1234;-65
2021/04/03 07:58:15;;;;;;;;;;;;;;;18.95;67.16;100463.00;5071309;28;1327;-64
2021/04/03 08:00:41;;;;;;;;;;;;;;;18.95;67.17;100468.28;5089495;28;907;-64
2021/04/03 08:03:08;;;;;;;;;;;;;;;18.97;67.34;100474.28;5089678;28;1267;-64
2021/04/03 08:05:34;;;;;;;;;;;;;;;18.97;67.20;100469.00;5089449;28;1227;-64
2021/04/03 08:08:01;;;;;;;;;;;;;;;18.97;67.20;100465.53;5089263;28;1315;-62
2021/04/03 08:10:28;;;;;;;;;;;;;;;18.97;67.48;100468.16;5089430;28;1199;-65
2021/04/03 08:12:54;;;;;;;;;;;;;;;18.96;67.37;100469.13;5070811;28;1902;-65
2021/04/03 08:15:21;;;;;;;;;;;;;;;18.96;67.40;100469.13;5054834;28;2481;-64
2021/04/03 08:17:51;;;;;;;;;;;;;;;18.98;67.44;100481.28;5099412;28;1325;-67
2021/04/03 08:20:17;;;;;;;;;;;;;;;19.06;67.64;100467.59;5089131;28;1018;-71
2021/04/03 08:23:02;;;;;;;;;;;;;;;19.05;68.65;100474.69;5088997;28;1221;-72
2021/04/03 08:25:29;;;;;;;;;;;;;;;19.03;68.53;100471.28;5088893;28;1365;-71
2021/04/03 08:27:57;;;;;;;;;;;;;;;19.03;69.29;100470.41;5053147;28;1373;-73
2021/04/03 08:30:31;;;;;;;;;;;;;;;19.01;69.45;100467.88;5070195;28;1156;-73
2021/04/03 08:33:08;;;;;;;;;;;;;;;19.01;69.46;100461.75;5070180;28;1906;-72
2021/04/03 08:35:35;;;;;;;;;;;;;;;19.00;69.11;100455.63;5088755;28;1260;-69
2021/04/03 08:38:05;;;;;;;;;;;;;;;19.09;68.65;100460.31;5088317;28;1322;-68
2021/04/03 08:40:32;;;;;;;;;;;;;;;19.18;68.69;100455.44;5078983;28;1507;-67
2021/04/03 08:42:58;;;;;;;;;;;;;;;19.19;68.91;100457.09;5095965;28;1330;-70
2021/04/03 08:45:24;;;;;;;;;;;;;;;19.16;68.30;100454.66;5089438;28;881;-68
2021/04/03 08:47:50;;;;;;;;;;;;;;;19.17;67.66;100456.38;5089295;28;1220;-69
2021/04/03 08:50:16;;;;;;;;;;;;;;;19.16;68.02;100452.03;5089693;28;888;-71
2021/04/03 08:52:44;;;;;;;;;;;;;;;19.18;67.18;100452.78;5070229;28;1925;-68
2021/04/03 08:55:10;;;;;;;;;;;;;;;19.20;66.75;100449.09;5088602;28;1140;-70
2021/04/03 08:57:37;;;;;;;;;;;;;;;19.24;67.91;100447.94;5070493;28;1345;-66
2021/04/03 09:00:03;;;;;;;;;;;;;;;19.24;67.16;100455.88;5089269;28;1054;-66
2021/04/03 09:02:31;;;;;;;;;;;;;;;19.24;68.27;100453.22;5089173;28;1228;-66
2021/04/03 09:05:01;;;;;;;;;;;;;;;19.23;67.25;100455.97;5054187;28;1823;-68
2021/04/03 09:07:34;;;;;;;;;;;;;;;19.25;66.50;100459.38;5088632;28;1382;-67
2021/04/03 09:10:07;;;;;;;;;;;;;;;19.30;66.28;100466.03;5088698;28;1187;-67
2021/04/03 09:12:34;;;;;;;;;;;;;;;19.29;66.57;100460.88;5070200;28;1941;-65
2021/04/03 09:15:00;;;;;;;;;;;;;;;19.26;66.05;100466.34;5089388;28;1544;-68
2021/04/03 09:17:27;;;;;;;;;;;;;;;19.27;66.82;100468.06;5099685;28;1256;-67
2021/04/03 09:20:07;;;;;;;;;;;;;;;19.41;67.06;100468.03;5089126;28;1095;-65
2021/04/03 09:22:39;;;;;;;;;;;;;;;19.45;65.82;100461.63;5106742;28;1291;-63
2021/04/03 09:25:07;;;;;;;;;;;;;;;19.50;66.85;100478.88;5103606;28;1548;-64
2021/04/03 09:27:35;;;;;;;;;;;;;;;19.54;65.35;100467.19;5101586;28;1351;-62
2021/04/03 09:30:29;;;;;;;;;;;;;;;19.54;67.05;100463.69;5106742;28;1253;-62
2021/04/03 09:32:55;;;;;;;;;;;;;;;19.54;67.66;100467.19;5084535;28;1914;-62
2021/04/03 09:35:27;;;;;;;;;;;;;;;19.52;66.40;100458.47;5107489;28;1306;-63
2021/04/03 09:37:57;;;;;;;;;;;;;;;19.52;66.84;100457.63;5107112;28;1323;-63
2021/04/03 09:40:34;;;;;;;;;;;;;;;19.52;66.92;100462.91;5106930;28;1092;-65
2021/04/03 09:43:00;;;;;;;;;;;;;;;19.52;66.88;100471.69;5089009;28;1248;-64
2021/04/03 09:45:27;;;;;;;;;;;;;;;19.51;67.40;100471.81;5107551;28;1199;-63
2021/04/03 09:47:55;;;;;;;;;;;;;;;19.51;67.81;100472.66;5103145;28;1549;-64
2021/04/03 09:50:21;;;;;;;;;;;;;;;19.50;67.32;100480.66;5096692;28;1137;-66
2021/04/03 09:52:48;;;;;;;;;;;;;;;19.42;62.02;100467.13;5086946;28;1991;-63
2021/04/03 09:55:14;;;;;;;;;;;;;;;19.41;62.94;100465.41;5070611;28;1045;-64
2021/04/03 09:57:40;;;;;;;;;;;;;;;19.41;62.03;100471.53;5088565;28;1327;-64
2021/04/03 10:00:09;;;;;;;;;;;;;;;19.39;65.89;100464.63;5088685;28;985;-64
2021/04/03 10:02:35;;;;;;;;;;;;;;;19.35;66.52;100463.97;5088519;28;1305;-64
2021/04/03 10:05:02;;;;;;;;;;;;;;;19.36;66.97;100467.47;5089041;28;1151;-64
2021/04/03 10:07:28;;;;;;;;;;;;;;;19.34;66.99;100458.78;5092107;28;1295;-64
2021/04/03 10:09:54;;;;;;;;;;;;;;;19.33;66.99;100463.19;5092501;28;1045;-63
2021/04/03 10:12:21;;;;;;;;;;;;;;;19.33;66.82;100454.47;5092465;28;1913;-64
2021/04/03 10:14:48;;;;;;;;;;;;;;;19.31;66.86;100456.34;5092596;28;1062;-64
2021/04/03 10:17:17;;;;;;;;;;;;;;;19.31;66.93;100453.69;5092281;28;1231;-64
2021/04/03 10:19:43;;;;;;;;;;;;;;;19.29;66.86;100450.31;5092631;28;1056;-64
2021/04/03 10:22:10;;;;;;;;;;;;;;;19.29;66.79;100451.16;5073691;28;1503;-64
2021/04/03 10:24:36;;;;;;;;;;;;;;;19.29;66.77;100453.81;5073914;28;1251;-64
2021/04/03 10:27:03;;;;;;;;;;;;;;;19.28;66.67;100448.59;5091899;28;1208;-64
2021/04/03 10:29:29;;;;;;;;;;;;;;;19.27;66.64;100437.19;5092015;28;1064;-64
2021/04/03 10:31:55;;;;;;;;;;;;;;;19.27;66.73;100439.00;5091499;28;1981;-64
2021/04/03 10:34:22;;;;;;;;;;;;;;;19.28;66.74;100443.31;5092025;28;1052;-64
2021/04/03 10:36:56;;;;;;;;;;;;;;;19.27;66.86;100433.72;5091657;28;1343;-64
2021/04/03 10:39:22;;;;;;;;;;;;;;;19.27;66.76;100433.72;5091830;28;1138;-65
2021/04/03 10:41:48;;;;;;;;;;;;;;;19.27;66.94;100433.72;5091414;28;1230;-64
2021/04/03 10:44:14;;;;;;;;;;;;;;;19.26;67.06;100422.31;5091489;28;1250;-64
2021/04/03 10:46:40;;;;;;;;;;;;;;;19.26;66.92;100421.47;5091018;28;1220;-64
2021/04/03 10:49:06;;;;;;;;;;;;;;;19.27;66.83;100428.44;5091429;28;1108;-65
2021/04/03 10:51:33;;;;;;;;;;;;;;;19.27;67.04;100420.53;5072540;28;1902;-64
2021/04/03 10:54:02;;;;;;;;;;;;;;;19.26;66.96;100413.53;5091493;28;971;-64
2021/04/03 10:56:28;;;;;;;;;;;;;;;19.26;67.10;100416.19;5091107;28;1208;-65
2021/04/03 10:58:54;;;;;;;;;;;;;;;19.26;67.05;100416.19;5072655;28;1339;-63
2021/04/03 11:01:21;;;;;;;;;;;;;;;19.27;67.15;100420.53;5091225;28;1311;-64
2021/04/03 11:03:47;;;;;;;;;;;;;;;19.27;67.16;100428.44;5091334;28;1169;-64
2021/04/03 11:06:13;;;;;;;;;;;;;;;19.27;67.11;100417.88;5091497;28;1239;-63
2021/04/03 11:08:39;;;;;;;;;;;;;;;19.28;67.07;100416.91;5091016;28;1042;-64
2021/04/03 11:11:06;;;;;;;;;;;;;;;19.28;67.11;100414.28;5091073;28;1192;-62
2021/04/03 11:13:32;;;;;;;;;;;;;;;19.28;67.14;100411.63;5072506;28;1953;-64
2021/04/03 11:15:59;;;;;;;;;;;;;;;19.27;67.15;100410.78;5090719;28;786;-64
2021/04/03 11:18:25;;;;;;;;;;;;;;;19.27;67.26;100408.13;5071232;28;1398;-63
2021/04/03 11:20:51;;;;;;;;;;;;;;;19.29;67.18;100403.63;5090755;28;825;-63
2021/04/03 11:23:17;;;;;;;;;;;;;;;19.28;67.16;100395.78;5072232;28;1338;-64
2021/04/03 11:25:45;;;;;;;;;;;;;;;19.28;67.24;100401.06;5090941;28;1076;-63
2021/04/03 11:28:11;;;;;;;;;;;;;;;19.29;67.14;100393.06;5090396;28;1265;-64
2021/04/03 11:30:37;;;;;;;;;;;;;;;19.29;67.36;100394.84;5090730;28;1279;-64
2021/04/03 11:33:04;;;;;;;;;;;;;;;19.30;67.30;100393.91;5090231;28;1914;-65
2021/04/03 11:35:32;;;;;;;;;;;;;;;19.29;67.42;100394.84;5090304;28;1068;-64
2021/04/03 11:37:58;;;;;;;;;;;;;;;19.29;67.39;100393.06;5090293;28;1216;-64
2021/04/03 11:40:24;;;;;;;;;;;;;;;19.29;67.39;100392.22;5072071;28;1222;-64
2021/04/03 11:42:55;;;;;;;;;;;;;;;19.28;67.28;100379.94;5090191;28;1236;-63
2021/04/03 11:45:23;;;;;;;;;;;;;;;19.29;67.41;100371.94;5090582;28;1060;-64
2021/04/03 11:47:52;;;;;;;;;;;;;;;19.24;67.30;100367.91;5090053;28;1362;-64
2021/04/03 11:50:19;;;;;;;;;;;;;;;19.29;67.27;100382.50;5090188;28;1048;-64
2021/04/03 11:52:46;;;;;;;;;;;;;;;19.30;67.31;100370.16;5090009;28;1910;-64
2021/04/03 11:55:15;;;;;;;;;;;;;;;19.31;67.37;100375.31;5090377;28;1088;-64
2021/04/03 11:57:42;;;;;;;;;;;;;;;19.31;67.33;100369.19;5090274;28;1302;-64
2021/04/03 12:00:11;;;;;;;;;;;;;;;19.30;67.13;100370.97;5071627;28;1253;-64
2021/04/03 12:02:57;;;;;;;;;;;;;;;19.32;67.22;100366.44;5088686;28;2541;-64
2021/04/03 12:05:23;;;;;;;;;;;;;;;19.32;67.11;100361.16;5071617;28;1335;-64
2021/04/03 12:07:51;;;;;;;;;;;;;;;19.34;67.07;100363.69;5089498;28;1322;-64
2021/04/03 12:10:22;;;;;;;;;;;;;;;19.34;67.10;100369.84;5071268;28;1367;-63
2021/04/03 12:12:52;;;;;;;;;;;;;;;19.35;67.03;100365.41;5071144;28;1913;-64
2021/04/03 12:15:25;;;;;;;;;;;;;;;19.35;67.11;100357.47;5089872;28;1051;-64
2021/04/03 12:17:52;;;;;;;;;;;;;;;19.37;67.04;100355.56;5071167;28;1598;-63
2021/04/03 12:20:38;;;;;;;;;;;;;;;19.36;66.95;100349.44;5086729;28;1216;-64
2021/04/03 12:23:24;;;;;;;;;;;;;;;19.37;67.01;100350.28;5089387;28;1356;-64
2021/04/03 12:25:52;;;;;;;;;;;;;;;19.37;66.87;100339.72;5070840;28;1506;-64
2021/04/03 12:28:18;;;;;;;;;;;;;;;19.38;66.86;100349.34;5088853;28;1299;-63
2021/04/03 12:30:44;;;;;;;;;;;;;;;19.37;66.83;100337.94;5089436;28;1190;-64
2021/04/03 12:33:29;;;;;;;;;;;;;;;19.39;66.83;100340.50;5089148;28;1979;-63
2021/04/03 12:35:57;;;;;;;;;;;;;;;19.39;66.86;100344.03;5089509;28;818;-63
2021/04/03 12:38:24;;;;;;;;;;;;;;;19.40;66.71;100347.47;5089417;28;1265;-63
2021/04/03 12:41:11;;;;;;;;;;;;;;;19.39;66.78;100337.84;5088963;28;1323;-64
2021/04/03 12:43:38;;;;;;;;;;;;;;;19.40;66.94;100327.19;5070600;28;1406;-66
2021/04/03 12:46:05;;;;;;;;;;;;;;;19.62;65.17;100330.13;5094278;27;1534;-69
2021/04/03 12:48:31;;;;;;;;;;;;;;;19.65;63.56;100318.50;5064254;28;1519;-74
2021/04/03 12:50:59;;;;;;;;;;;;;;;19.67;62.54;100321.88;5089830;28;1432;-71
2021/04/03 12:53:26;;;;;;;;;;;;;;;19.59;61.17;100317.13;5088802;28;1941;-72